createdAt,value
2018-03-31T00:00:33.872Z,98.59
2018-03-31T00:01:33.861Z,98.16
2018-03-31T00:02:33.584Z,98.59
2018-03-31T00:03:33.828Z,99.16
2018-03-31T00:04:33.819Z,99.35
2018-03-31T00:05:33.545Z,99.35
2018-03-31T00:06:33.802Z,99.35
2018-03-31T00:07:33.779Z,99.16
2018-03-31T00:08:33.510Z,99.63
2018-03-31T00:09:33.753Z,99.26
2018-03-31T00:10:33.747Z,99.02
2018-03-31T00:11:33.469Z,99.54
2018-03-31T00:12:33.712Z,99.21
2018-03-31T00:13:33.703Z,98.64
2018-03-31T00:14:33.690Z,98.54
2018-03-31T00:15:33.677Z,98.26
2018-03-31T00:16:33.665Z,98.35
2018-03-31T00:17:33.651Z,98.4
2018-03-31T00:18:33.640Z,98.87
2018-03-31T00:19:33.628Z,98.45
2018-03-31T00:20:33.615Z,98.35
2018-03-31T00:21:33.341Z,97.97
2018-03-31T00:22:33.328Z,98.49
2018-03-31T00:23:33.573Z,99.26
2018-03-31T00:24:33.561Z,99.4
2018-03-31T00:25:33.547Z,99.4
2018-03-31T00:26:33.278Z,99.58
2018-03-31T00:27:33.524Z,99.4
2018-03-31T00:28:33.510Z,99.44
2018-03-31T00:29:33.500Z,99.3
2018-03-31T00:30:33.238Z,99.26
2018-03-31T00:31:33.476Z,99.49
2018-03-31T00:32:33.201Z,99.3
2018-03-31T00:33:33.451Z,98.92
2018-03-31T00:34:33.432Z,98.68
2018-03-31T00:35:33.428Z,99.06
2018-03-31T00:36:33.411Z,98.78
2018-03-31T00:37:33.138Z,98.21
2018-03-31T00:38:33.383Z,97.64
2018-03-31T00:39:33.371Z,97.92
2018-03-31T00:40:33.358Z,98.21
2018-03-31T00:41:33.346Z,97.83
2018-03-31T00:42:33.329Z,98.16
2018-03-31T00:43:33.325Z,98.68
2018-03-31T00:44:33.303Z,98.3
2018-03-31T00:45:33.036Z,97.92
2018-03-31T00:46:33.278Z,98.21
2018-03-31T00:47:33.008Z,98.02
2018-03-31T00:48:32.995Z,97.92
2018-03-31T00:49:32.981Z,97.26
2018-03-31T00:50:32.969Z,97.26
2018-03-31T00:51:33.227Z,97.36
2018-03-31T00:52:33.200Z,97.17
2018-03-31T00:53:33.189Z,97.36
2018-03-31T00:54:33.175Z,97.17
2018-03-31T00:55:33.193Z,97.36
2018-03-31T00:56:33.152Z,97.83
2018-03-31T00:57:33.137Z,97.83
2018-03-31T00:58:33.125Z,98.02
2018-03-31T00:59:33.110Z,98.11
2018-03-31T01:00:33.101Z,98.11
2018-03-31T01:01:32.827Z,97.07
2018-03-31T01:02:33.079Z,97.36
2018-03-31T01:03:32.800Z,96.78
2018-03-31T01:04:33.047Z,96.69
2018-03-31T01:05:33.041Z,97.07
2018-03-31T01:06:33.020Z,97.07
2018-03-31T01:07:33.014Z,96.59
2018-03-31T01:08:32.996Z,96.31
2018-03-31T01:09:32.985Z,96.5
2018-03-31T01:10:32.713Z,96.31
2018-03-31T01:11:32.955Z,96.69
2018-03-31T01:12:32.941Z,96.22
2018-03-31T01:13:32.930Z,96.78
2018-03-31T01:14:32.659Z,96.41
2018-03-31T01:15:32.645Z,96.41
2018-03-31T01:16:32.632Z,96.12
2018-03-31T01:17:32.879Z,97.36
2018-03-31T01:18:32.876Z,97.36
2018-03-31T01:19:32.850Z,97.07
2018-03-31T01:20:32.838Z,97.36
2018-03-31T01:21:32.836Z,96.97
2018-03-31T01:22:32.812Z,96.31
2018-03-31T01:23:32.801Z,96.97
2018-03-31T01:24:32.786Z,97.17
2018-03-31T01:25:32.772Z,97.17
2018-03-31T01:26:32.763Z,96.97
2018-03-31T01:27:32.750Z,96.88
2018-03-31T01:28:32.741Z,97.07
2018-03-31T01:29:32.718Z,97.36
2018-03-31T01:30:32.451Z,97.17
2018-03-31T01:31:32.699Z,97.17
2018-03-31T01:32:32.680Z,97.17
2018-03-31T01:33:32.666Z,97.26
2018-03-31T01:34:32.656Z,97.17
2018-03-31T01:35:32.640Z,97.36
2018-03-31T01:36:32.627Z,97.36
2018-03-31T01:37:32.667Z,97.17
2018-03-31T01:38:32.343Z,96.97
2018-03-31T01:39:32.330Z,97.07
2018-03-31T01:40:32.316Z,97.07
2018-03-31T01:41:32.559Z,96.69
2018-03-31T01:42:32.550Z,96.69
2018-03-31T01:43:32.536Z,96.41
2018-03-31T01:44:32.522Z,96.5
2018-03-31T01:45:32.508Z,96.03
2018-03-31T01:46:32.496Z,96.22
2018-03-31T01:47:32.500Z,95.46
2018-03-31T01:48:32.210Z,94.98
2018-03-31T01:49:32.195Z,95.07
2018-03-31T01:50:32.447Z,94.42
2018-03-31T01:51:32.170Z,94.42
2018-03-31T01:52:32.421Z,94.51
2018-03-31T01:53:32.404Z,94.32
2018-03-31T01:54:32.134Z,94.13
2018-03-31T01:55:32.380Z,94.7
2018-03-31T01:56:32.360Z,95.22
2018-03-31T01:57:32.347Z,94.65
2018-03-31T01:58:32.335Z,94.27
2018-03-31T01:59:32.061Z,93.37
2018-03-31T02:00:32.306Z,92.85
2018-03-31T02:01:32.035Z,92.66
2018-03-31T02:02:32.284Z,93.32
2018-03-31T02:03:32.280Z,93.8
2018-03-31T02:04:32.253Z,93.04
2018-03-31T02:05:32.244Z,92.47
2018-03-31T02:06:32.251Z,92.38
2018-03-31T02:07:32.212Z,92.38
2018-03-31T02:08:32.201Z,92.57
2018-03-31T02:09:32.186Z,92.94
2018-03-31T02:10:32.174Z,93.13
2018-03-31T02:11:32.161Z,91.71
2018-03-31T02:12:32.144Z,91.05
2018-03-31T02:13:32.138Z,91.05
2018-03-31T02:14:32.118Z,90.1
2018-03-31T02:15:32.109Z,89.91
2018-03-31T02:16:32.091Z,89.72
2018-03-31T02:17:32.082Z,90
2018-03-31T02:18:32.065Z,90.38
2018-03-31T02:19:32.058Z,90.1
2018-03-31T02:20:32.039Z,90.29
2018-03-31T02:21:31.773Z,89.53
2018-03-31T02:22:32.011Z,88.77
2018-03-31T02:23:31.997Z,89.15
2018-03-31T02:24:31.983Z,89.53
2018-03-31T02:25:31.968Z,89.15
2018-03-31T02:26:31.969Z,88.96
2018-03-31T02:27:31.687Z,89.15
2018-03-31T02:28:31.933Z,89.06
2018-03-31T02:29:31.926Z,88.48
2018-03-31T02:30:31.906Z,88.39
2018-03-31T02:31:31.890Z,89.15
2018-03-31T02:32:31.876Z,89.34
2018-03-31T02:33:31.864Z,88.77
2018-03-31T02:34:31.851Z,88.48
2018-03-31T02:35:31.844Z,88.58
2018-03-31T02:36:31.572Z,88.39
2018-03-31T02:37:31.808Z,88.58
2018-03-31T02:38:31.796Z,88.48
2018-03-31T02:39:31.780Z,87.73
2018-03-31T02:40:31.509Z,87.4
2018-03-31T02:41:31.756Z,87.45
2018-03-31T02:42:31.482Z,87.59
2018-03-31T02:43:31.741Z,88.1
2018-03-31T02:44:31.456Z,88.63
2018-03-31T02:45:31.701Z,88.54
2018-03-31T02:46:31.685Z,89.2
2018-03-31T02:47:31.673Z,88.92
2018-03-31T02:48:31.669Z,88.82
2018-03-31T02:49:31.650Z,88.44
2018-03-31T02:50:31.633Z,87.97
2018-03-31T02:51:31.631Z,86.64
2018-03-31T02:52:31.608Z,86.45
2018-03-31T02:53:31.331Z,86.07
2018-03-31T02:54:31.574Z,86.45
2018-03-31T02:55:31.565Z,86.55
2018-03-31T02:56:31.558Z,86.26
2018-03-31T02:57:31.533Z,86.16
2018-03-31T02:58:31.528Z,86.07
2018-03-31T02:59:31.511Z,85.69
2018-03-31T03:00:31.505Z,85.03
2018-03-31T03:01:31.483Z,84.27
2018-03-31T03:02:31.207Z,84.46
2018-03-31T03:03:31.195Z,84.84
2018-03-31T03:04:31.178Z,85.03
2018-03-31T03:05:31.430Z,84.46
2018-03-31T03:06:31.417Z,84.27
2018-03-31T03:07:31.416Z,83.98
2018-03-31T03:08:31.380Z,83.7
2018-03-31T03:09:31.378Z,83.89
2018-03-31T03:10:31.351Z,84.08
2018-03-31T03:11:31.336Z,83.61
2018-03-31T03:12:31.337Z,83.61
2018-03-31T03:13:31.052Z,83.8
2018-03-31T03:14:31.298Z,83.61
2018-03-31T03:15:31.033Z,83.51
2018-03-31T03:16:31.268Z,84.08
2018-03-31T03:17:30.996Z,83.89
2018-03-31T03:18:31.251Z,83.61
2018-03-31T03:19:31.225Z,83.51
2018-03-31T03:20:31.211Z,83.32
2018-03-31T03:21:31.208Z,82.94
2018-03-31T03:22:31.190Z,82.75
2018-03-31T03:23:31.169Z,82.75
2018-03-31T03:24:31.160Z,82.47
2018-03-31T03:25:31.145Z,82.18
2018-03-31T03:26:31.129Z,82.28
2018-03-31T03:27:31.114Z,82.37
2018-03-31T03:28:30.841Z,81.62
2018-03-31T03:29:31.089Z,81.43
2018-03-31T03:30:31.076Z,81.24
2018-03-31T03:31:31.067Z,81.71
2018-03-31T03:32:31.045Z,82.28
2018-03-31T03:33:30.776Z,82.75
2018-03-31T03:34:31.015Z,82.47
2018-03-31T03:35:31.002Z,82.28
2018-03-31T03:36:30.988Z,82.94
2018-03-31T03:37:30.972Z,83.42
2018-03-31T03:38:30.960Z,83.23
2018-03-31T03:39:30.686Z,82.75
2018-03-31T03:40:30.935Z,82.09
2018-03-31T03:41:30.915Z,81.71
2018-03-31T03:42:30.903Z,81.43
2018-03-31T03:43:30.630Z,81.14
2018-03-31T03:44:30.875Z,80.48
2018-03-31T03:45:30.857Z,80.1
2018-03-31T03:46:30.848Z,79.72
2018-03-31T03:47:30.888Z,79.53
2018-03-31T03:48:30.818Z,80
2018-03-31T03:49:30.801Z,80.95
2018-03-31T03:50:30.788Z,81.52
2018-03-31T03:51:30.772Z,81.81
2018-03-31T03:52:30.760Z,81.24
2018-03-31T03:53:30.747Z,80.38
2018-03-31T03:54:30.730Z,80.57
2018-03-31T03:55:30.462Z,80.38
2018-03-31T03:56:30.444Z,81.05
2018-03-31T03:57:30.693Z,81.05
2018-03-31T03:58:30.678Z,81.33
2018-03-31T03:59:30.659Z,81.62
2018-03-31T04:00:30.647Z,81.52
2018-03-31T04:01:30.635Z,81.05
2018-03-31T04:02:30.616Z,80.48
2018-03-31T04:03:30.602Z,80.29
2018-03-31T04:04:30.589Z,80.48
2018-03-31T04:05:30.318Z,79.91
2018-03-31T04:06:30.564Z,79.34
2018-03-31T04:07:30.558Z,79.25
2018-03-31T04:08:30.532Z,79.34
2018-03-31T04:09:30.520Z,79.91
2018-03-31T04:10:30.245Z,78.96
2018-03-31T04:11:30.489Z,79.34
2018-03-31T04:12:30.478Z,78.87
2018-03-31T04:13:30.205Z,78.67
2018-03-31T04:14:30.450Z,78.49
2018-03-31T04:15:30.433Z,78.49
2018-03-31T04:16:30.422Z,78.58
2018-03-31T04:17:30.407Z,79.25
2018-03-31T04:18:30.134Z,80.19
2018-03-31T04:19:30.120Z,81.52
2018-03-31T04:20:30.366Z,82.09
2018-03-31T04:21:30.350Z,81.14
2018-03-31T04:22:30.340Z,81.43
2018-03-31T04:23:30.324Z,82.04
2018-03-31T04:24:30.309Z,81.94
2018-03-31T04:25:30.293Z,82.04
2018-03-31T04:26:30.278Z,82.42
2018-03-31T04:27:30.267Z,82.6
2018-03-31T04:28:30.251Z,81.94
2018-03-31T04:29:30.242Z,80.86
2018-03-31T04:30:30.276Z,80.43
2018-03-31T04:31:30.211Z,80.19
2018-03-31T04:32:30.195Z,80.43
2018-03-31T04:33:30.185Z,81.37
2018-03-31T04:34:30.168Z,81.56
2018-03-31T04:35:30.165Z,81.09
2018-03-31T04:36:30.140Z,81.47
2018-03-31T04:37:30.129Z,81.27
2018-03-31T04:38:29.855Z,80.43
2018-03-31T04:39:30.098Z,80.52
2018-03-31T04:40:29.826Z,80.62
2018-03-31T04:41:30.073Z,80.62
2018-03-31T04:42:30.059Z,80.33
2018-03-31T04:43:30.042Z,78.05
2018-03-31T04:44:30.028Z,77.11
2018-03-31T04:45:30.021Z,75.49
2018-03-31T04:46:30.006Z,74.54
2018-03-31T04:47:29.729Z,73.79
2018-03-31T04:48:30.066Z,73.12
2018-03-31T04:49:29.960Z,72.93
2018-03-31T04:50:29.944Z,72.55
2018-03-31T04:51:29.677Z,72.74
2018-03-31T04:52:29.922Z,73.12
2018-03-31T04:53:29.647Z,73.03
2018-03-31T04:54:29.890Z,73.03
2018-03-31T04:55:29.880Z,72.27
2018-03-31T04:56:29.606Z,71.89
2018-03-31T04:57:29.854Z,72.27
2018-03-31T04:58:29.895Z,71.89
2018-03-31T04:59:29.821Z,71.89
2018-03-31T05:00:29.808Z,71.32
2018-03-31T05:01:29.794Z,70.94
2018-03-31T05:02:29.524Z,70.94
2018-03-31T05:03:29.510Z,71.03
2018-03-31T05:04:29.752Z,71.32
2018-03-31T05:05:29.740Z,71.03
2018-03-31T05:06:29.468Z,70.78
2018-03-31T05:07:29.716Z,69.93
2018-03-31T05:08:29.700Z,68.79
2018-03-31T05:09:29.426Z,68.7
2018-03-31T05:10:29.686Z,68.41
2018-03-31T05:11:29.658Z,68.66
2018-03-31T05:12:29.650Z,69.74
2018-03-31T05:13:29.630Z,71.26
2018-03-31T05:14:29.618Z,72.3
2018-03-31T05:15:29.608Z,72.17
2018-03-31T05:16:29.592Z,72.74
2018-03-31T05:17:29.582Z,73.92
2018-03-31T05:18:29.565Z,74.92
2018-03-31T05:19:29.552Z,75.78
2018-03-31T05:20:29.279Z,75.68
2018-03-31T05:21:29.526Z,74.92
2018-03-31T05:22:29.253Z,75.02
2018-03-31T05:23:29.504Z,74.73
2018-03-31T05:24:29.482Z,73.97
2018-03-31T05:25:29.471Z,73.88
2018-03-31T05:26:29.551Z,73.69
2018-03-31T05:27:29.447Z,71.98
2018-03-31T05:28:29.428Z,72.08
2018-03-31T05:29:29.415Z,72.02
2018-03-31T05:30:29.404Z,71.32
2018-03-31T05:31:29.393Z,69.9
2018-03-31T05:32:29.117Z,69.46
2018-03-31T05:33:29.363Z,68.89
2018-03-31T05:34:29.089Z,68.6
2018-03-31T05:35:29.337Z,67.85
2018-03-31T05:36:29.064Z,67.75
2018-03-31T05:37:29.309Z,66.89
2018-03-31T05:38:29.295Z,66.61
2018-03-31T05:39:29.328Z,66.61
2018-03-31T05:40:29.269Z,65.85
2018-03-31T05:41:29.253Z,66.14
2018-03-31T05:42:29.242Z,65.75
2018-03-31T05:43:29.227Z,65.56
2018-03-31T05:44:28.964Z,65.95
2018-03-31T05:45:29.203Z,66.33
2018-03-31T05:46:29.188Z,68.04
2018-03-31T05:47:28.916Z,68.6
2018-03-31T05:48:29.163Z,68.04
2018-03-31T05:49:28.896Z,67.85
2018-03-31T05:50:28.876Z,67.65
2018-03-31T05:51:28.864Z,67.65
2018-03-31T05:52:28.850Z,67.46
2018-03-31T05:53:29.099Z,66.52
2018-03-31T05:54:28.825Z,65.75
2018-03-31T05:55:28.812Z,65.37
2018-03-31T05:56:29.055Z,65.37
2018-03-31T05:57:29.040Z,65.66
2018-03-31T05:58:29.030Z,66.42
2018-03-31T05:59:29.019Z,66.52
2018-03-31T06:00:29.004Z,66.04
2018-03-31T06:01:28.995Z,65.85
2018-03-31T06:02:28.979Z,66.14
2018-03-31T06:03:28.989Z,66.71
2018-03-31T06:04:28.954Z,66.61
2018-03-31T06:05:28.936Z,66.33
2018-03-31T06:06:28.921Z,66.14
2018-03-31T06:07:28.910Z,66.61
2018-03-31T06:08:28.906Z,66.8
2018-03-31T06:09:28.886Z,68.51
2018-03-31T06:10:28.612Z,68.7
2018-03-31T06:11:28.600Z,68.6
2018-03-31T06:12:28.848Z,68.83
2018-03-31T06:13:28.833Z,67.94
2018-03-31T06:14:28.560Z,67.85
2018-03-31T06:15:28.804Z,68.04
2018-03-31T06:16:28.793Z,67.94
2018-03-31T06:17:28.780Z,68.04
2018-03-31T06:18:28.509Z,67.08
2018-03-31T06:19:28.495Z,67.65
2018-03-31T06:20:28.482Z,67.85
2018-03-31T06:21:28.733Z,68.51
2018-03-31T06:22:28.713Z,69.08
2018-03-31T06:23:28.443Z,69.55
2018-03-31T06:24:28.430Z,69.3
2018-03-31T06:25:28.674Z,69.49
2018-03-31T06:26:28.663Z,69.4
2018-03-31T06:27:28.651Z,68.73
2018-03-31T06:28:28.640Z,67.97
2018-03-31T06:29:28.628Z,68.07
2018-03-31T06:30:28.612Z,68.73
2018-03-31T06:31:28.601Z,68.92
2018-03-31T06:32:28.588Z,68.64
2018-03-31T06:33:28.572Z,69.49
2018-03-31T06:34:28.563Z,69.59
2018-03-31T06:35:28.548Z,69.4
2018-03-31T06:36:28.278Z,69.96
2018-03-31T06:37:28.285Z,69.96
2018-03-31T06:38:28.513Z,70.63
2018-03-31T06:39:28.502Z,71.01
2018-03-31T06:40:28.489Z,71.96
2018-03-31T06:41:28.214Z,72.63
2018-03-31T06:42:28.201Z,72.91
2018-03-31T06:43:28.447Z,73.48
2018-03-31T06:44:28.438Z,73.86
2018-03-31T06:45:28.163Z,74.52
2018-03-31T06:46:28.409Z,74.43
2018-03-31T06:47:28.396Z,75
2018-03-31T06:48:28.381Z,76.04
2018-03-31T06:49:28.113Z,75.85
2018-03-31T06:50:28.365Z,75.57
2018-03-31T06:51:28.351Z,75.57
2018-03-31T06:52:28.334Z,75
2018-03-31T06:53:28.319Z,75.19
2018-03-31T06:54:28.048Z,74.33
2018-03-31T06:55:28.316Z,73.86
2018-03-31T06:56:28.280Z,73.67
2018-03-31T06:57:28.284Z,73.1
2018-03-31T06:58:28.255Z,73
2018-03-31T06:59:28.255Z,72.63
2018-03-31T07:00:28.236Z,72.53
2018-03-31T07:01:27.978Z,72.15
2018-03-31T07:02:28.207Z,72.81
2018-03-31T07:03:28.194Z,72.34
2018-03-31T07:04:27.922Z,72.63
2018-03-31T07:05:28.171Z,73
2018-03-31T07:06:28.154Z,73.29
2018-03-31T07:07:28.145Z,71.86
2018-03-31T07:08:27.873Z,72.06
2018-03-31T07:09:28.115Z,70.82
2018-03-31T07:10:28.108Z,70.73
2018-03-31T07:11:28.089Z,70.06
2018-03-31T07:12:28.078Z,69.96
2018-03-31T07:13:28.069Z,69.68
2018-03-31T07:14:28.055Z,69.59
2018-03-31T07:15:28.105Z,69.11
2018-03-31T07:16:28.034Z,69.4
2018-03-31T07:17:28.014Z,68.92
2018-03-31T07:18:28.003Z,68.44
2018-03-31T07:19:27.733Z,68.54
2018-03-31T07:20:27.717Z,67.59
2018-03-31T07:21:27.706Z,67.88
2018-03-31T07:22:27.950Z,67.97
2018-03-31T07:23:27.940Z,67.79
2018-03-31T07:24:27.928Z,68.35
2018-03-31T07:25:27.922Z,68.07
2018-03-31T07:26:27.908Z,67.88
2018-03-31T07:27:27.632Z,67.4
2018-03-31T07:28:27.881Z,66.74
2018-03-31T07:29:27.608Z,66.64
2018-03-31T07:30:27.856Z,66.17
2018-03-31T07:31:27.836Z,65.41
2018-03-31T07:32:27.827Z,64.84
2018-03-31T07:33:27.817Z,64.65
2018-03-31T07:34:27.802Z,64.08
2018-03-31T07:35:27.791Z,63.89
2018-03-31T07:36:27.516Z,63.6
2018-03-31T07:37:27.762Z,63.23
2018-03-31T07:38:27.489Z,63.6
2018-03-31T07:39:27.478Z,64.37
2018-03-31T07:40:27.468Z,64.75
2018-03-31T07:41:27.714Z,66.08
2018-03-31T07:42:27.727Z,68.35
2018-03-31T07:43:27.687Z,71.2
2018-03-31T07:44:27.674Z,72.34
2018-03-31T07:45:27.666Z,72.91
2018-03-31T07:46:27.646Z,73.1
2018-03-31T07:47:27.640Z,73.48
2018-03-31T07:48:27.652Z,74.81
2018-03-31T07:49:27.352Z,76.99
2018-03-31T07:50:27.336Z,76.8
2018-03-31T07:51:27.326Z,75.85
2018-03-31T07:52:27.573Z,75.19
2018-03-31T07:53:27.558Z,76.32
2018-03-31T07:54:27.287Z,76.42
2018-03-31T07:55:27.549Z,76.8
2018-03-31T07:56:27.263Z,76.61
2018-03-31T07:57:27.508Z,76.9
2018-03-31T07:58:27.496Z,77.09
2018-03-31T07:59:27.224Z,78.32
2018-03-31T08:00:27.469Z,78.7
2018-03-31T08:01:27.458Z,78.32
2018-03-31T08:02:27.446Z,77.94
2018-03-31T08:03:27.430Z,77.75
2018-03-31T08:04:27.162Z,77.84
2018-03-31T08:05:27.406Z,78.8
2018-03-31T08:06:27.394Z,78.51
2018-03-31T08:07:27.379Z,78.42
2018-03-31T08:08:27.369Z,78.13
2018-03-31T08:09:27.358Z,78.32
2018-03-31T08:10:27.342Z,80.03
2018-03-31T08:11:27.329Z,81.26
2018-03-31T08:12:27.315Z,80.51
2018-03-31T08:13:27.303Z,81.45
2018-03-31T08:14:27.032Z,82.4
2018-03-31T08:15:27.017Z,82.69
2018-03-31T08:16:27.276Z,82.59
2018-03-31T08:17:27.250Z,83.26
2018-03-31T08:18:26.981Z,82.78
2018-03-31T08:19:27.227Z,82.69
2018-03-31T08:20:27.216Z,82.5
2018-03-31T08:21:26.942Z,83.26
2018-03-31T08:22:26.928Z,83.26
2018-03-31T08:23:27.173Z,82.31
2018-03-31T08:24:27.171Z,82.69
2018-03-31T08:25:27.149Z,82.59
2018-03-31T08:26:27.137Z,82.31
2018-03-31T08:27:27.123Z,83.83
2018-03-31T08:28:27.111Z,83.83
2018-03-31T08:29:27.108Z,82.97
2018-03-31T08:30:27.247Z,82.21
2018-03-31T08:31:27.073Z,81.79
2018-03-31T08:32:27.057Z,81.45
2018-03-31T08:33:27.045Z,80.65
2018-03-31T08:34:26.773Z,80.46
2018-03-31T08:35:27.021Z,79.94
2018-03-31T08:36:27.010Z,78.7
2018-03-31T08:37:26.993Z,78.47
2018-03-31T08:38:26.991Z,78.28
2018-03-31T08:39:26.713Z,78.47
2018-03-31T08:40:26.699Z,78.8
2018-03-31T08:41:26.940Z,78.42
2018-03-31T08:42:26.928Z,78.32
2018-03-31T08:43:26.919Z,79.27
2018-03-31T08:44:26.908Z,79.74
2018-03-31T08:45:26.891Z,80.03
2018-03-31T08:46:26.881Z,80.69
2018-03-31T08:47:26.869Z,80.79
2018-03-31T08:48:26.852Z,80.22
2018-03-31T08:49:26.581Z,80.41
2018-03-31T08:50:26.830Z,80.69
2018-03-31T08:51:26.825Z,80.22
2018-03-31T08:52:26.801Z,79.84
2018-03-31T08:53:26.788Z,80.41
2018-03-31T08:54:26.518Z,82.03
2018-03-31T08:55:26.761Z,82.69
2018-03-31T08:56:26.750Z,82.88
2018-03-31T08:57:26.485Z,83.45
2018-03-31T08:58:26.730Z,83.26
2018-03-31T08:59:26.714Z,83.26
2018-03-31T09:00:26.705Z,83.83
2018-03-31T09:01:26.696Z,83.73
2018-03-31T09:02:26.673Z,85.82
2018-03-31T09:03:26.664Z,85.44
2018-03-31T09:04:26.391Z,85.06
2018-03-31T09:05:26.639Z,84.87
2018-03-31T09:06:26.366Z,84.68
2018-03-31T09:07:26.354Z,83.64
2018-03-31T09:08:26.603Z,82.59
2018-03-31T09:09:26.607Z,82.59
2018-03-31T09:10:26.585Z,82.12
2018-03-31T09:11:26.560Z,81.98
2018-03-31T09:12:26.291Z,81.98
2018-03-31T09:13:26.542Z,82.27
2018-03-31T09:14:26.522Z,82.08
2018-03-31T09:15:26.512Z,80.46
2018-03-31T09:16:26.240Z,79.33
2018-03-31T09:17:26.483Z,78.38
2018-03-31T09:18:26.212Z,78.28
2018-03-31T09:19:26.208Z,78.09
2018-03-31T09:20:26.487Z,77.24
2018-03-31T09:21:26.432Z,76.76
2018-03-31T09:22:26.418Z,76.1
2018-03-31T09:23:26.403Z,75.91
2018-03-31T09:24:26.398Z,76.39
2018-03-31T09:25:26.167Z,75.62
2018-03-31T09:26:26.107Z,75.05
2018-03-31T09:27:26.350Z,75.53
2018-03-31T09:28:26.096Z,76.01
2018-03-31T09:29:26.326Z,76.76
2018-03-31T09:30:26.311Z,76.95
2018-03-31T09:31:26.301Z,76.86
2018-03-31T09:32:26.284Z,77.43
2018-03-31T09:33:26.275Z,77.9
2018-03-31T09:34:26.259Z,78.19
2018-03-31T09:35:25.986Z,78
2018-03-31T09:36:26.240Z,78
2018-03-31T09:37:26.216Z,77.81
2018-03-31T09:38:26.205Z,77.43
2018-03-31T09:39:26.194Z,77.24
2018-03-31T09:40:26.178Z,77.33
2018-03-31T09:41:26.165Z,77.14
2018-03-31T09:42:26.156Z,76.76
2018-03-31T09:43:26.136Z,76.67
2018-03-31T09:44:26.129Z,77.14
2018-03-31T09:45:26.113Z,78
2018-03-31T09:46:26.103Z,79.08
2018-03-31T09:47:26.086Z,80.13
2018-03-31T09:48:26.071Z,79.27
2018-03-31T09:49:26.059Z,78.99
2018-03-31T09:50:25.787Z,80.03
2018-03-31T09:51:26.032Z,79.27
2018-03-31T09:52:26.024Z,78.7
2018-03-31T09:53:26.020Z,79.17
2018-03-31T09:54:25.991Z,77.84
2018-03-31T09:55:25.980Z,78.89
2018-03-31T09:56:25.710Z,79.03
2018-03-31T09:57:25.960Z,79.5
2018-03-31T09:58:25.684Z,81.97
2018-03-31T09:59:25.930Z,84.01
2018-03-31T10:00:25.981Z,84.58
2018-03-31T10:01:25.905Z,87.66
2018-03-31T10:02:25.944Z,89.37
2018-03-31T10:03:25.884Z,90.61
2018-03-31T10:04:25.870Z,92.13
2018-03-31T10:05:25.599Z,92.84
2018-03-31T10:06:25.849Z,92.94
2018-03-31T10:07:25.833Z,98.08
2018-03-31T10:08:25.823Z,98.83
2018-03-31T10:09:25.553Z,98.46
2018-03-31T10:10:25.801Z,98.46
2018-03-31T10:11:25.793Z,98.74
2018-03-31T10:12:25.787Z,98.31
2018-03-31T10:13:25.507Z,98.31
2018-03-31T10:14:25.757Z,98.22
2018-03-31T10:15:25.491Z,98.03
2018-03-31T10:16:25.734Z,98.6
2018-03-31T10:17:25.722Z,98.6
2018-03-31T10:18:25.717Z,98.88
2018-03-31T10:19:25.702Z,98.69
2018-03-31T10:20:25.689Z,98.88
2018-03-31T10:21:25.419Z,98.6
2018-03-31T10:22:25.665Z,98.88
2018-03-31T10:23:25.661Z,98.41
2018-03-31T10:24:25.386Z,98.5
2018-03-31T10:25:25.634Z,98.5
2018-03-31T10:26:25.624Z,98.69
2018-03-31T10:27:25.355Z,97.83
2018-03-31T10:28:25.598Z,98.5
2018-03-31T10:29:25.588Z,98.69
2018-03-31T10:30:25.585Z,98.5
2018-03-31T10:31:25.567Z,98.17
2018-03-31T10:32:25.298Z,97.74
2018-03-31T10:33:25.543Z,98.12
2018-03-31T10:34:25.532Z,97.97
2018-03-31T10:35:25.631Z,97.69
2018-03-31T10:36:25.572Z,96.93
2018-03-31T10:37:25.501Z,97.78
2018-03-31T10:38:25.486Z,97.31
2018-03-31T10:39:25.485Z,96.65
2018-03-31T10:40:25.464Z,96.17
2018-03-31T10:41:25.463Z,95.7
2018-03-31T10:42:25.185Z,96.74
2018-03-31T10:43:25.431Z,97.22
2018-03-31T10:44:25.456Z,97.22
2018-03-31T10:45:25.411Z,96.84
2018-03-31T10:46:25.399Z,96.84
2018-03-31T10:47:25.440Z,97.64
2018-03-31T10:48:25.378Z,97.78
2018-03-31T10:49:25.366Z,97.45
2018-03-31T10:50:25.352Z,97.55
2018-03-31T10:51:25.085Z,98.17
2018-03-31T10:52:25.091Z,97.22
2018-03-31T10:53:25.320Z,97.6
2018-03-31T10:54:25.319Z,97.22
2018-03-31T10:55:25.299Z,97.12
2018-03-31T10:56:25.027Z,97.22
2018-03-31T10:57:25.013Z,97.03
2018-03-31T10:58:25.263Z,96.65
2018-03-31T10:59:25.256Z,95.98
2018-03-31T11:00:25.321Z,96.65
2018-03-31T11:01:25.285Z,96.55
2018-03-31T11:02:24.959Z,96.84
2018-03-31T11:03:25.205Z,97.12
2018-03-31T11:04:25.199Z,96.74
2018-03-31T11:05:25.183Z,96.26
2018-03-31T11:06:25.178Z,96.26
2018-03-31T11:07:25.164Z,95.41
2018-03-31T11:08:24.890Z,95.55
2018-03-31T11:09:25.156Z,95.41
2018-03-31T11:10:24.865Z,95.89
2018-03-31T11:11:25.113Z,96.55
2018-03-31T11:12:25.102Z,96.55
2018-03-31T11:13:25.090Z,96.65
2018-03-31T11:14:24.819Z,95.6
2018-03-31T11:15:25.073Z,95.89
2018-03-31T11:16:25.057Z,95.41
2018-03-31T11:17:25.041Z,95.94
2018-03-31T11:18:24.838Z,95.36
2018-03-31T11:19:25.090Z,95.17
2018-03-31T11:20:25.069Z,94.7
2018-03-31T11:21:24.998Z,94.6
2018-03-31T11:22:25.048Z,94.13
2018-03-31T11:23:24.972Z,93.75
2018-03-31T11:24:24.973Z,94.6
2018-03-31T11:25:24.961Z,94.79
2018-03-31T11:26:24.679Z,94.7
2018-03-31T11:27:24.927Z,95.08
2018-03-31T11:28:24.916Z,94.32
2018-03-31T11:29:24.908Z,93.75
2018-03-31T11:30:24.889Z,93.65
2018-03-31T11:31:24.878Z,93.75
2018-03-31T11:32:24.612Z,93.75
2018-03-31T11:33:24.597Z,94.42
2018-03-31T11:34:24.585Z,95.55
2018-03-31T11:35:24.571Z,94.6
2018-03-31T11:36:24.823Z,94.6
2018-03-31T11:37:24.546Z,93.84
2018-03-31T11:38:24.538Z,93.75
2018-03-31T11:39:24.782Z,94.23
2018-03-31T11:40:24.780Z,93.65
2018-03-31T11:41:24.759Z,93.56
2018-03-31T11:42:24.788Z,93.27
2018-03-31T11:43:24.732Z,93.27
2018-03-31T11:44:24.722Z,93.27
2018-03-31T11:45:24.713Z,93.18
2018-03-31T11:46:24.702Z,92.9
2018-03-31T11:47:24.429Z,93.08
2018-03-31T11:48:24.674Z,92.9
2018-03-31T11:49:24.662Z,92.32
2018-03-31T11:50:24.654Z,90.99
2018-03-31T11:51:24.641Z,91.47
2018-03-31T11:52:24.629Z,90.52
2018-03-31T11:53:24.610Z,89.72
2018-03-31T11:54:24.600Z,89.76
2018-03-31T11:55:24.592Z,89.95
2018-03-31T11:56:24.579Z,89.81
2018-03-31T11:57:24.308Z,89.43
2018-03-31T11:58:24.293Z,89.43
2018-03-31T11:59:24.542Z,89.05
2018-03-31T12:00:24.530Z,87.72
2018-03-31T12:01:24.527Z,87.62
2018-03-31T12:02:24.515Z,86.68
2018-03-31T12:03:24.500Z,86.49
2018-03-31T12:04:24.479Z,86.58
2018-03-31T12:05:24.208Z,86.3
2018-03-31T12:06:24.481Z,85.72
2018-03-31T12:07:24.445Z,84.68
2018-03-31T12:08:24.430Z,84.68
2018-03-31T12:09:24.157Z,84.3
2018-03-31T12:10:24.402Z,84.59
2018-03-31T12:11:24.397Z,84.78
2018-03-31T12:12:24.383Z,84.4
2018-03-31T12:13:24.366Z,84.21
2018-03-31T12:14:24.355Z,84.78
2018-03-31T12:15:24.342Z,84.78
2018-03-31T12:16:24.347Z,84.21
2018-03-31T12:17:24.316Z,83.83
2018-03-31T12:18:24.303Z,83.92
2018-03-31T12:19:24.297Z,84.72
2018-03-31T12:20:24.277Z,85.01
2018-03-31T12:21:24.267Z,85.35
2018-03-31T12:22:24.008Z,84.21
2018-03-31T12:23:24.242Z,84.25
2018-03-31T12:24:24.232Z,84.87
2018-03-31T12:25:24.221Z,84.97
2018-03-31T12:26:24.209Z,84.78
2018-03-31T12:27:24.197Z,86.11
2018-03-31T12:28:24.178Z,85.44
2018-03-31T12:29:24.166Z,84.97
2018-03-31T12:30:23.901Z,84.59
2018-03-31T12:31:23.884Z,84.21
2018-03-31T12:32:24.128Z,82.78
2018-03-31T12:33:23.858Z,83.07
2018-03-31T12:34:24.106Z,82.69
2018-03-31T12:35:23.834Z,84.49
2018-03-31T12:36:23.823Z,84.11
2018-03-31T12:37:24.068Z,83.64
2018-03-31T12:38:24.050Z,83.26
2018-03-31T12:39:24.044Z,83.92
2018-03-31T12:40:24.029Z,86.11
2018-03-31T12:41:24.052Z,87.05
2018-03-31T12:42:24.005Z,87.72
2018-03-31T12:43:23.990Z,88.48
2018-03-31T12:44:23.977Z,87.82
2018-03-31T12:45:23.962Z,87.82
2018-03-31T12:46:24.010Z,87.24
2018-03-31T12:47:23.679Z,87.24
2018-03-31T12:48:23.927Z,87.62
2018-03-31T12:49:23.912Z,88.86
2018-03-31T12:50:23.643Z,89.33
2018-03-31T12:51:23.890Z,89.05
2018-03-31T12:52:23.618Z,88.39
2018-03-31T12:53:23.863Z,88.48
2018-03-31T12:54:23.849Z,89.43
2018-03-31T12:55:23.837Z,90.19